Time;durP1;ratioP1;P1;durP2;ratioP2;P2;SDS_P1;SDS_P2;PMS_P1;PMS_P2;Temp;Humidity;BMP_temperature;BMP_pressure;BME280_temperature;BME280_humidity;BME280_pressure;Samples;Min_cycle;Max_cycle;Signal;HPM_P1;HPM_P2
2021/05/24 00:00:52;;;;;;;3.83;1.70;;;;;;;7.00;74.83;100812.76;128446;1101;62883;-81
2021/05/24 00:03:19;;;;;;;4.77;1.80;;;;;;;6.97;74.59;100818.31;128372;1101;62211;-81
2021/05/24 00:05:47;;;;;;;4.83;1.33;;;;;;;6.92;74.89;100808.22;128436;1101;62218;-81
2021/05/24 00:08:15;;;;;;;3.80;1.83;;;;;;;6.88;75.33;100805.03;128411;1101;62822;-80
2021/05/24 00:10:43;;;;;;;3.17;1.70;;;;;;;6.82;75.23;100795.11;128397;1101;62440;-80
2021/05/24 00:13:13;;;;;;;3.57;1.70;;;;;;;6.77;75.61;100796.52;128449;1101;62857;-80
2021/05/24 00:15:44;;;;;;;3.00;1.87;;;;;;;6.72;76.12;100802.23;128393;1101;62319;-79
2021/05/24 00:18:11;;;;;;;2.67;1.70;;;;;;;6.68;75.72;100800.87;128228;1102;62836;-79
2021/05/24 00:20:42;;;;;;;3.13;1.43;;;;;;;6.64;75.97;100799.50;128431;1101;62478;-81
2021/05/24 00:23:09;;;;;;;4.10;1.90;;;;;;;6.61;76.26;100794.50;128376;1101;64160;-79
2021/05/24 00:25:37;;;;;;;2.37;1.27;;;;;;;6.58;76.35;100797.45;128353;1101;62086;-79
2021/05/24 00:28:07;;;;;;;2.50;1.47;;;;;;;6.54;76.83;100796.90;128381;1101;62113;-80
2021/05/24 00:30:34;;;;;;;4.17;1.90;;;;;;;6.51;76.65;100802.47;128429;1101;62177;-80
2021/05/24 00:33:03;;;;;;;6.63;1.57;;;;;;;6.48;76.90;100805.38;128411;1101;62119;-79
2021/05/24 00:35:31;;;;;;;4.33;1.90;;;;;;;6.45;76.99;100797.78;128446;1101;62702;-79
2021/05/24 00:37:58;;;;;;;3.33;1.50;;;;;;;6.40;77.73;100797.41;128436;1101;62233;-79
2021/05/24 00:40:26;;;;;;;5.60;2.00;;;;;;;6.37;77.42;100795.04;128433;1101;62789;-79
2021/05/24 00:42:54;;;;;;;3.50;1.90;;;;;;;6.33;77.53;100794.48;128442;1101;62221;-79
2021/05/24 00:45:21;;;;;;;8.93;2.50;;;;;;;6.31;78.17;100788.53;128448;1101;62239;-79
2021/05/24 00:47:49;;;;;;;4.03;1.80;;;;;;;6.30;78.33;100789.52;128402;1101;64103;-79
2021/05/24 00:50:16;;;;;;;5.00;1.93;;;;;;;6.28;78.39;100779.13;128446;1101;62192;-80
2021/05/24 00:52:44;;;;;;;3.27;1.70;;;;;;;6.28;78.36;100780.94;128409;1101;62651;-80
2021/05/24 00:55:12;;;;;;;3.53;1.60;;;;;;;6.27;78.19;100784.56;128398;1101;62989;-80
2021/05/24 00:57:39;;;;;;;2.30;1.60;;;;;;;6.26;78.86;100777.61;128417;1101;62544;-80
2021/05/24 01:00:10;;;;;;;4.40;1.80;;;;;;;6.23;78.65;100765.56;128407;1101;62546;-80
2021/05/24 01:02:37;;;;;;;3.87;1.80;;;;;;;6.22;78.25;100770.97;128430;1101;62814;-80
2021/05/24 01:05:05;;;;;;;3.00;1.70;;;;;;;6.18;78.35;100766.97;128401;1101;62330;-80
2021/05/24 01:07:32;;;;;;;3.33;1.57;;;;;;;6.14;78.71;100769.05;128446;1101;62441;-80
2021/05/24 01:10:00;;;;;;;1.93;1.50;;;;;;;6.10;78.74;100760.63;128410;1101;62185;-81
2021/05/24 01:12:27;;;;;;;4.87;2.37;;;;;;;6.07;78.86;100768.80;128432;1101;62557;-81
2021/05/24 01:14:54;;;;;;;2.57;1.90;;;;;;;6.04;78.79;100763.83;128422;1101;62041;-80
2021/05/24 01:17:21;;;;;;;7.33;2.17;;;;;;;6.02;78.45;100749.98;128428;1101;62224;-80
2021/05/24 01:19:48;;;;;;;3.53;1.80;;;;;;;6.00;79.07;100754.55;128369;1101;62503;-80
2021/05/24 01:22:21;;;;;;;5.07;2.10;;;;;;;6.00;79.23;100756.37;128463;1101;62528;-80
2021/05/24 01:24:49;;;;;;;4.43;1.80;;;;;;;5.98;78.85;100755.68;128394;1101;62389;-80
2021/05/24 01:27:17;;;;;;;6.63;1.87;;;;;;;5.95;78.89;100754.17;128433;1102;63024;-80
2021/05/24 01:29:44;;;;;;;3.67;1.80;;;;;;;5.92;79.31;100755.23;128367;1101;62013;-81
2021/05/24 01:32:12;;;;;;;2.97;1.63;;;;;;;5.89;79.83;100744.17;128422;1101;62045;-82
2021/05/24 01:34:40;;;;;;;4.63;2.23;;;;;;;5.88;79.81;100742.50;128389;1101;63956;-82
2021/05/24 01:37:07;;;;;;;2.87;1.27;;;;;;;5.85;79.91;100740.98;128413;1101;62160;-82
2021/05/24 01:39:34;;;;;;;4.20;1.97;;;;;;;5.85;79.51;100748.89;128391;1101;62283;-81
2021/05/24 01:42:01;;;;;;;2.90;1.67;;;;;;;5.86;79.95;100741.81;128399;1101;62591;-82
2021/05/24 01:44:32;;;;;;;3.67;1.43;;;;;;;5.87;80.01;100739.05;128385;1101;62532;-82
2021/05/24 01:47:01;;;;;;;3.00;1.50;;;;;;;5.89;80.48;100736.28;128391;1101;62473;-81
2021/05/24 01:49:31;;;;;;;3.97;1.13;;;;;;;5.91;80.33;100726.44;128401;1101;62157;-81
2021/05/24 01:51:58;;;;;;;5.10;1.50;;;;;;;5.93;80.30;100729.75;128424;1101;62759;-80
2021/05/24 01:54:25;;;;;;;5.13;1.67;;;;;;;5.95;80.03;100732.25;128389;1101;62556;-80
2021/05/24 01:56:52;;;;;;;1.50;0.90;;;;;;;5.97;81.61;100727.67;128426;1101;63964;-80
2021/05/24 01:59:20;;;;;;;3.13;1.10;;;;;;;6.00;81.23;100730.03;128429;1101;62266;-80
2021/05/24 02:01:47;;;;;;;3.60;1.40;;;;;;;6.03;80.91;100729.73;128466;1101;62386;-80
2021/05/24 02:04:16;;;;;;;1.37;0.80;;;;;;;6.05;81.03;100728.61;128390;1101;62169;-81
2021/05/24 02:06:43;;;;;;;1.80;1.10;;;;;;;6.05;80.54;100718.08;128391;1101;62186;-81
2021/05/24 02:09:11;;;;;;;3.57;1.50;;;;;;;6.09;80.63;100722.08;128454;1101;62312;-81
2021/05/24 02:11:38;;;;;;;2.57;1.73;;;;;;;6.12;80.09;100713.08;128432;1101;62192;-80
2021/05/24 02:14:05;;;;;;;2.10;1.33;;;;;;;6.15;80.09;100715.41;128429;1101;62377;-81
2021/05/24 02:16:39;;;;;;;1.70;1.10;;;;;;;6.19;80.10;100715.96;128402;1101;62489;-82
2021/05/24 02:19:08;;;;;;;3.23;1.30;;;;;;;6.24;80.39;100721.61;128453;1101;62867;-81
2021/05/24 02:21:36;;;;;;;2.17;1.00;;;;;;;6.25;79.77;100721.47;128408;1101;62097;-81
2021/05/24 02:24:08;;;;;;;4.73;1.10;;;;;;;6.26;79.82;100719.66;128446;1101;62215;-81
2021/05/24 02:26:37;;;;;;;2.30;1.10;;;;;;;6.27;79.96;100723.97;128405;1101;63683;-81
2021/05/24 02:29:05;;;;;;;4.10;1.00;;;;;;;6.29;79.43;100719.35;128433;1101;62856;-81
2021/05/24 02:31:34;;;;;;;2.60;1.00;;;;;;;6.29;79.86;100722.84;128369;1101;62420;-81
2021/05/24 02:34:06;;;;;;;1.27;0.70;;;;;;;6.28;79.20;100717.70;128422;1101;62828;-82
2021/05/24 02:36:35;;;;;;;1.93;1.00;;;;;;;6.26;79.94;100720.48;128401;1101;62718;-82
2021/05/24 02:39:08;;;;;;;2.13;1.13;;;;;;;6.27;79.36;100718.70;128484;1101;63657;-83
2021/05/24 02:41:37;;;;;;;6.05;1.40;;;;;;;6.27;78.87;100726.60;128427;1101;62411;-82
2021/05/24 02:44:10;;;;;;;2.73;1.28;;;;;;;6.28;79.63;100722.98;128408;1101;62155;-82
2021/05/24 02:46:37;;;;;;;1.80;1.13;;;;;;;6.28;79.10;100717.70;128457;1101;62273;-82
2021/05/24 02:49:05;;;;;;;3.43;1.30;;;;;;;6.27;78.73;100718.70;128169;1101;62151;-82
2021/05/24 02:51:34;;;;;;;2.03;0.77;;;;;;;6.25;79.08;100718.02;128395;1101;62151;-82
2021/05/24 02:54:02;;;;;;;3.80;1.00;;;;;;;6.24;79.61;100713.70;128482;1101;63208;-82
2021/05/24 02:56:29;;;;;;;2.23;1.10;;;;;;;6.21;79.79;100720.10;128411;1101;62258;-80
2021/05/24 02:58:56;;;;;;;2.77;0.93;;;;;;;6.20;79.38;100717.60;128383;1101;62888;-81
2021/05/24 03:01:25;;;;;;;3.07;1.70;;;;;;;6.19;79.58;100713.33;128446;1101;63270;-81
2021/05/24 03:03:57;;;;;;;1.50;1.20;;;;;;;6.20;79.45;100720.23;128369;1101;62127;-81
2021/05/24 03:06:24;;;;;;;2.30;1.20;;;;;;;6.25;79.57;100718.02;128376;1101;62825;-81
2021/05/24 03:08:52;;;;;;;2.47;0.93;;;;;;;6.28;80.01;100717.70;128372;1101;62149;-81
2021/05/24 03:11:20;;;;;;;7.03;1.70;;;;;;;6.31;79.86;100718.25;128438;1101;62084;-80
2021/05/24 03:13:48;;;;;;;3.63;1.13;;;;;;;6.35;79.76;100710.86;128448;1101;62079;-80
2021/05/24 03:16:15;;;;;;;2.10;0.90;;;;;;;6.38;79.60;100713.22;128323;1101;61969;-80
2021/05/24 03:18:43;;;;;;;5.30;1.50;;;;;;;6.40;79.23;100700.73;128388;1101;63181;-79
2021/05/24 03:21:10;;;;;;;1.33;1.00;;;;;;;6.42;79.38;100697.92;128356;1101;62240;-79
2021/05/24 03:23:37;;;;;;;2.07;0.80;;;;;;;6.43;79.27;100700.42;128331;1101;62060;-82
2021/05/24 03:26:05;;;;;;;1.27;0.70;;;;;;;6.44;79.33;100694.19;128348;1101;62329;-82
2021/05/24 03:28:32;;;;;;;1.37;0.77;;;;;;;6.44;79.31;100701.24;128343;1101;62359;-82
2021/05/24 03:30:59;;;;;;;1.10;0.60;;;;;;;6.45;79.06;100702.92;128394;1101;62155;-81
2021/05/24 03:33:26;;;;;;;2.87;1.33;;;;;;;6.46;78.99;100694.02;128383;1101;62156;-81
2021/05/24 03:35:53;;;;;;;3.13;1.47;;;;;;;6.49;78.92;100701.64;128444;1101;62334;-82
2021/05/24 03:38:20;;;;;;;2.20;1.10;;;;;;;6.52;79.30;100698.70;128423;1101;62479;-81
2021/05/24 03:40:47;;;;;;;3.10;1.43;;;;;;;6.56;79.19;100704.52;128419;1101;62426;-81
2021/05/24 03:43:14;;;;;;;3.67;1.13;;;;;;;6.58;78.82;100692.02;128371;1101;62819;-81
2021/05/24 03:45:41;;;;;;;3.40;1.30;;;;;;;6.61;79.27;100684.66;128453;1101;62175;-81
2021/05/24 03:48:09;;;;;;;3.40;1.37;;;;;;;6.64;79.40;100680.88;128436;1101;62878;-81
2021/05/24 03:50:36;;;;;;;1.57;0.90;;;;;;;6.66;79.51;100684.20;128400;1101;62294;-82
2021/05/24 03:53:03;;;;;;;2.57;0.80;;;;;;;6.69;79.10;100684.73;128438;1101;62056;-82
2021/05/24 03:55:30;;;;;;;2.07;1.00;;;;;;;6.72;79.45;100683.60;128426;1101;62696;-81
2021/05/24 03:57:58;;;;;;;1.23;0.70;;;;;;;6.75;79.92;100688.56;128361;1101;62089;-81
2021/05/24 04:00:25;;;;;;;1.60;1.10;;;;;;;6.80;79.40;100674.92;128411;1102;62484;-81
2021/05/24 04:02:52;;;;;;;3.77;1.30;;;;;;;6.87;79.28;100686.55;128409;1101;62170;-81
2021/05/24 04:05:22;;;;;;;2.73;0.90;;;;;;;6.94;78.97;100677.03;128426;1101;62442;-81
2021/05/24 04:07:52;;;;;;;2.90;0.90;;;;;;;7.03;79.22;100670.84;128415;1101;62280;-81
2021/05/24 04:10:21;;;;;;;1.60;0.80;;;;;;;7.11;78.77;100670.09;128194;1102;62408;-82
2021/05/24 04:12:48;;;;;;;3.73;1.20;;;;;;;7.19;79.03;100671.97;128443;1101;62141;-82
2021/05/24 04:15:17;;;;;;;2.20;0.70;;;;;;;7.26;79.05;100671.19;128479;1101;63053;-82
2021/05/24 04:17:46;;;;;;;3.33;1.10;;;;;;;7.33;78.72;100677.52;128388;1101;63266;-83
2021/05/24 04:20:13;;;;;;;1.63;0.90;;;;;;;7.40;78.83;100682.19;128451;1101;62065;-82
2021/05/24 04:22:41;;;;;;;1.00;0.60;;;;;;;7.47;78.54;100683.21;128389;1101;62431;-82
2021/05/24 04:25:09;;;;;;;1.77;0.90;;;;;;;7.55;78.59;100677.99;128429;1101;62319;-83
2021/05/24 04:27:37;;;;;;;1.90;1.10;;;;;;;7.62;78.25;100679.02;128435;1101;62572;-82
2021/05/24 04:30:06;;;;;;;2.87;0.90;;;;;;;7.72;78.41;100682.38;128458;1101;62927;-82
2021/05/24 04:32:33;;;;;;;4.80;1.17;;;;;;;7.81;78.13;100682.42;128399;1101;62366;-83
2021/05/24 04:35:01;;;;;;;1.40;0.73;;;;;;;7.92;78.01;100677.68;128320;1101;61981;-82
2021/05/24 04:37:28;;;;;;;4.30;0.63;;;;;;;8.01;78.44;100673.29;128377;1101;62448;-82
2021/05/24 04:39:56;;;;;;;3.73;0.80;;;;;;;8.15;78.10;100672.66;128385;1101;62512;-82
2021/05/24 04:42:23;;;;;;;3.40;0.70;;;;;;;8.32;77.98;100673.55;128485;1101;62380;-82
2021/05/24 04:44:50;;;;;;;2.10;1.10;;;;;;;8.49;76.87;100677.09;128470;1101;63016;-83
2021/05/24 04:47:17;;;;;;;2.87;0.93;;;;;;;8.65;77.19;100663.09;128427;1101;62283;-83
2021/05/24 04:49:49;;;;;;;4.00;0.80;;;;;;;8.85;76.85;100663.59;128406;1101;62148;-83
2021/05/24 04:52:17;;;;;;;1.03;0.53;;;;;;;9.01;76.63;100654.00;128448;1101;62151;-83
2021/05/24 04:54:45;;;;;;;1.77;0.77;;;;;;;9.14;75.58;100667.58;128465;1100;62485;-83
2021/05/24 04:57:13;;;;;;;1.40;0.57;;;;;;;9.25;75.92;100661.13;128468;1101;62108;-83
2021/05/24 04:59:40;;;;;;;2.47;1.00;;;;;;;9.35;75.10;100659.95;128429;1101;62372;-83
2021/05/24 05:02:08;;;;;;;2.03;0.80;;;;;;;9.48;74.91;100658.58;128432;1101;62187;-83
2021/05/24 05:04:35;;;;;;;0.90;0.63;;;;;;;9.61;74.46;100650.96;128396;1101;62168;-82
2021/05/24 05:07:02;;;;;;;1.50;0.67;;;;;;;9.74;74.04;100659.19;128427;1101;62130;-83
2021/05/24 05:09:30;;;;;;;1.00;0.50;;;;;;;9.87;73.59;100657.83;128426;1101;62243;-83
2021/05/24 05:11:57;;;;;;;0.97;0.60;;;;;;;9.99;72.75;100667.06;128187;1102;61967;-83
2021/05/24 05:14:25;;;;;;;1.97;0.70;;;;;;;10.10;73.03;100658.73;128433;1101;62529;-83
2021/05/24 05:16:53;;;;;;;2.37;0.93;;;;;;;10.22;72.42;100651.20;128425;1101;62161;-83
2021/05/24 05:19:20;;;;;;;1.33;0.53;;;;;;;10.33;72.22;100653.52;128431;1101;62212;-83
2021/05/24 05:21:50;;;;;;;2.13;0.97;;;;;;;10.44;71.45;100644.33;128479;1101;62751;-81
2021/05/24 05:24:18;;;;;;;0.70;0.40;;;;;;;10.57;70.86;100643.75;128413;1101;62258;-81
2021/05/24 05:26:46;;;;;;;1.77;0.63;;;;;;;10.68;70.86;100645.98;128409;1101;62043;-81
2021/05/24 05:29:13;;;;;;;2.03;1.00;;;;;;;10.79;70.69;100647.40;128151;1102;63606;-79
2021/05/24 05:31:40;;;;;;;1.20;0.60;;;;;;;10.90;70.17;100644.34;128464;1101;62486;-80
2021/05/24 05:34:07;;;;;;;0.67;0.40;;;;;;;10.99;69.31;100651.23;128424;1101;62846;-80
2021/05/24 05:36:36;;;;;;;1.03;0.50;;;;;;;11.11;69.92;100650.80;128444;1101;62407;-80
2021/05/24 05:39:07;;;;;;;3.43;0.50;;;;;;;11.23;68.83;100646.70;128433;1101;62285;-79
2021/05/24 05:41:35;;;;;;;1.17;0.57;;;;;;;11.34;68.79;100643.60;128466;1101;62264;-79
2021/05/24 05:44:04;;;;;;;1.17;0.70;;;;;;;11.46;68.33;100648.48;128433;1101;62159;-79
2021/05/24 05:46:32;;;;;;;0.77;0.40;;;;;;;11.57;68.52;100640.88;128432;1101;62287;-80
2021/05/24 05:48:59;;;;;;;2.00;0.80;;;;;;;11.67;67.54;100635.30;128432;1101;62381;-80
2021/05/24 05:51:26;;;;;;;0.87;0.43;;;;;;;11.74;66.69;100630.89;128429;1101;62194;-80
2021/05/24 05:53:54;;;;;;;2.30;0.70;;;;;;;11.85;66.42;100632.26;128422;1101;62155;-80
2021/05/24 05:56:21;;;;;;;1.07;0.60;;;;;;;11.97;66.50;100630.00;128469;1101;62363;-80
2021/05/24 05:58:48;;;;;;;0.50;0.37;;;;;;;12.08;66.27;100631.36;128435;1101;62196;-80
2021/05/24 06:01:15;;;;;;;2.00;0.60;;;;;;;12.20;66.03;100635.19;128393;1101;62099;-80
2021/05/24 06:03:42;;;;;;;2.70;0.50;;;;;;;12.33;65.84;100635.33;128182;1101;62187;-80
2021/05/24 06:06:12;;;;;;;2.43;0.70;;;;;;;12.44;65.27;100621.52;128441;1101;62116;-80
2021/05/24 06:08:39;;;;;;;0.90;0.50;;;;;;;12.56;64.86;100629.84;128433;1101;62197;-80
2021/05/24 06:11:07;;;;;;;1.30;0.47;;;;;;;12.64;63.87;100627.06;128467;1101;62880;-79
2021/05/24 06:13:34;;;;;;;2.63;0.60;;;;;;;12.76;63.59;100631.87;128411;1101;62258;-79
2021/05/24 06:16:01;;;;;;;2.20;0.50;;;;;;;12.90;63.99;100625.65;128423;1101;62575;-80
2021/05/24 06:18:28;;;;;;;2.47;0.83;;;;;;;13.02;63.10;100623.27;128432;1101;62571;-79
2021/05/24 06:20:55;;;;;;;1.70;1.10;;;;;;;13.15;62.73;100622.55;128376;1101;62982;-79
2021/05/24 06:23:23;;;;;;;3.47;0.77;;;;;;;13.24;62.62;100616.90;128459;1101;63166;-80
2021/05/24 06:25:50;;;;;;;2.20;0.53;;;;;;;13.32;61.33;100618.60;128390;1101;62249;-79
2021/05/24 06:28:17;;;;;;;1.07;0.50;;;;;;;13.41;61.44;100620.12;128444;1101;62213;-79
2021/05/24 06:30:48;;;;;;;0.60;0.40;;;;;;;13.49;60.88;100615.64;128383;1101;63137;-80
2021/05/24 06:33:15;;;;;;;2.07;0.50;;;;;;;13.58;60.41;100622.45;128421;1101;62024;-80
2021/05/24 06:35:43;;;;;;;1.57;0.77;;;;;;;13.65;59.62;100618.00;128398;1101;62487;-80
2021/05/24 06:38:10;;;;;;;1.93;0.70;;;;;;;13.75;59.58;100618.47;128426;1101;62218;-80
2021/05/24 06:40:37;;;;;;;0.33;0.30;;;;;;;13.85;59.24;100621.56;128398;1101;62137;-81
2021/05/24 06:43:04;;;;;;;1.50;0.50;;;;;;;13.95;58.22;100628.39;128462;1101;62139;-82
2021/05/24 06:45:31;;;;;;;2.70;0.90;;;;;;;14.03;58.19;100614.89;128397;1101;62180;-81
2021/05/24 06:47:58;;;;;;;1.97;0.60;;;;;;;14.13;58.00;100620.68;128417;1101;62832;-81
2021/05/24 06:50:25;;;;;;;1.40;0.57;;;;;;;14.19;56.50;100621.70;128344;1101;62333;-81
2021/05/24 06:52:52;;;;;;;0.55;0.40;;;;;;;14.25;56.93;100603.05;128478;1101;63107;-82
2021/05/24 06:55:20;;;;;;;2.47;0.60;;;;;;;14.36;57.70;100611.48;128452;1101;62213;-82
2021/05/24 06:57:47;;;;;;;2.10;0.67;;;;;;;14.50;57.07;100607.02;128451;1101;62294;-82
2021/05/24 07:00:14;;;;;;;3.43;0.70;;;;;;;14.63;56.71;100605.20;128494;1101;62206;-81
2021/05/24 07:02:42;;;;;;;1.70;0.40;;;;;;;14.80;56.32;100610.16;128396;1101;62841;-80
2021/05/24 07:05:10;;;;;;;1.90;0.70;;;;;;;14.85;55.08;100594.32;128422;1101;61641;-80
2021/05/24 07:07:38;;;;;;;0.90;0.50;;;;;;;14.99;54.84;100603.17;128415;1101;62436;-80
2021/05/24 07:10:07;;;;;;;1.93;0.50;;;;;;;15.02;53.58;100606.23;128457;1101;62436;-81
2021/05/24 07:12:34;;;;;;;0.97;0.33;;;;;;;15.06;54.00;100615.48;128445;1101;62856;-80
2021/05/24 07:15:03;;;;;;;0.43;0.30;;;;;;;15.13;53.29;100620.00;128411;1101;62429;-80
2021/05/24 07:17:31;;;;;;;1.43;0.60;;;;;;;15.21;53.44;100611.77;128446;1101;62637;-80
2021/05/24 07:20:01;;;;;;;2.17;0.40;;;;;;;15.31;52.96;100611.36;128404;1101;62065;-80
2021/05/24 07:22:28;;;;;;;2.67;0.60;;;;;;;15.41;52.41;100601.88;128449;1101;62432;-80
2021/05/24 07:24:56;;;;;;;0.67;0.30;;;;;;;15.54;51.63;100600.21;128432;1101;62000;-80
2021/05/24 07:27:24;;;;;;;2.10;0.50;;;;;;;15.63;51.72;100594.41;128439;1101;63929;-80
2021/05/24 07:29:51;;;;;;;1.90;0.60;;;;;;;15.73;50.37;100596.68;128095;1103;62083;-83
2021/05/24 07:32:18;;;;;;;3.23;0.87;;;;;;;15.87;52.01;100600.11;128446;1101;62064;-81
2021/05/24 07:34:45;;;;;;;1.10;0.50;;;;;;;15.89;50.15;100593.51;128448;1101;62802;-81
2021/05/24 07:37:12;;;;;;;2.53;0.63;;;;;;;15.94;49.02;100594.73;128388;1101;62262;-80
2021/05/24 07:39:40;;;;;;;0.97;0.40;;;;;;;16.04;49.80;100584.39;128393;1101;62382;-75
2021/05/24 07:42:08;;;;;;;2.00;0.60;;;;;;;16.07;49.76;100581.31;128419;1101;62060;-76
2021/05/24 07:44:35;;;;;;;1.07;0.37;;;;;;;16.08;49.39;100585.61;128352;1101;62985;-76
2021/05/24 07:47:03;;;;;;;1.37;0.30;;;;;;;16.13;50.08;100571.58;128415;1101;62331;-76
2021/05/24 07:49:31;;;;;;;3.33;0.60;;;;;;;16.20;49.63;100570.52;128404;1100;62551;-75
2021/05/24 07:51:58;;;;;;;1.37;0.40;;;;;;;16.29;49.50;100566.55;128351;1101;62552;-75
2021/05/24 07:54:25;;;;;;;2.27;0.50;;;;;;;16.44;50.55;100557.39;128425;1101;63035;-76
2021/05/24 07:56:52;;;;;;;1.97;0.33;;;;;;;16.60;49.06;100556.87;128401;1101;62174;-76
2021/05/24 07:59:20;;;;;;;0.83;0.43;;;;;;;16.63;47.27;100547.57;128391;1101;62311;-76
2021/05/24 08:01:47;;;;;;;1.30;0.30;;;;;;;16.69;48.25;100544.02;128354;1101;62828;-76
2021/05/24 08:04:14;;;;;;;1.60;0.40;;;;;;;16.71;47.57;100547.30;128388;1101;62501;-76
2021/05/24 08:06:41;;;;;;;1.53;0.37;;;;;;;16.77;47.89;100545.62;128415;1101;62119;-76
2021/05/24 08:09:08;;;;;;;1.57;0.70;;;;;;;16.88;48.56;100550.28;128380;1101;62704;-76
2021/05/24 08:11:36;;;;;;;0.70;0.30;;;;;;;16.97;47.27;100548.95;128391;1101;62182;-76
2021/05/24 08:14:03;;;;;;;3.43;0.50;;;;;;;16.99;47.10;100543.38;128373;1101;62378;-76
2021/05/24 08:16:30;;;;;;;2.60;1.27;;;;;;;17.05;47.32;100537.95;128345;1101;62265;-76
2021/05/24 08:18:58;;;;;;;2.33;0.60;;;;;;;17.15;47.64;100536.61;128419;1101;62077;-76
2021/05/24 08:21:25;;;;;;;0.70;0.20;;;;;;;17.24;46.89;100540.66;128386;1100;61723;-76
2021/05/24 08:23:52;;;;;;;2.37;0.63;;;;;;;17.31;45.94;100531.47;128417;1101;62090;-75
2021/05/24 08:26:19;;;;;;;2.63;0.50;;;;;;;17.41;45.67;100536.33;128399;1101;62051;-76
2021/05/24 08:28:46;;;;;;;0.80;0.30;;;;;;;17.50;45.68;100528.80;128407;1101;62222;-76
2021/05/24 08:31:13;;;;;;;1.20;0.50;;;;;;;17.62;46.34;100518.95;128417;1101;63069;-76
2021/05/24 08:33:40;;;;;;;1.10;0.50;;;;;;;17.78;46.24;100514.81;128362;1101;62040;-76
2021/05/24 08:36:07;;;;;;;2.50;0.40;;;;;;;17.87;44.90;100507.30;128358;1101;63238;-77
2021/05/24 08:38:34;;;;;;;0.30;0.20;;;;;;;17.97;44.37;100501.39;128404;1100;62907;-75
2021/05/24 08:41:07;;;;;;;1.17;0.50;;;;;;;18.09;44.38;100512.98;128366;1101;62392;-76
2021/05/24 08:43:36;;;;;;;0.57;0.27;;;;;;;18.19;43.48;100510.57;128383;1101;62376;-75
2021/05/24 08:46:05;;;;;;;0.70;0.40;;;;;;;18.27;42.71;100496.78;128371;1101;62225;-75
2021/05/24 08:48:32;;;;;;;3.87;0.70;;;;;;;18.30;41.41;100503.59;128399;1101;63965;-75
2021/05/24 08:51:00;;;;;;;1.10;0.40;;;;;;;18.40;42.74;100500.31;128342;1101;62938;-76
2021/05/24 08:53:29;;;;;;;3.23;0.60;;;;;;;18.48;39.91;100497.30;128376;1101;63004;-75
2021/05/24 08:55:56;;;;;;;1.67;0.40;;;;;;;18.49;39.57;100498.95;128395;1101;62268;-75
2021/05/24 08:58:23;;;;;;;1.30;0.40;;;;;;;18.55;39.88;100487.24;128413;1101;62250;-76
2021/05/24 09:00:51;;;;;;;0.80;0.33;;;;;;;18.64;41.33;100483.18;128619;1101;62361;-76
2021/05/24 09:03:21;;;;;;;1.13;0.30;;;;;;;18.72;40.90;100477.46;128347;1101;62881;-76
2021/05/24 09:05:49;;;;;;;1.00;0.40;;;;;;;18.78;38.61;100491.00;128441;1101;62307;-76
2021/05/24 09:08:17;;;;;;;2.00;0.40;;;;;;;18.82;39.42;100473.39;128414;1101;62101;-76
2021/05/24 09:10:47;;;;;;;1.47;0.30;;;;;;;18.92;38.61;100470.93;128394;1101;62457;-76
2021/05/24 09:13:20;;;;;;;1.30;0.37;;;;;;;18.94;36.41;100469.63;128434;1101;63003;-76
2021/05/24 09:15:47;;;;;;;2.20;0.50;;;;;;;18.95;38.18;100462.38;128403;1101;61998;-76
2021/05/24 09:18:18;;;;;;;0.83;0.30;;;;;;;19.07;37.45;100465.06;128387;1101;63126;-76
2021/05/24 09:20:50;;;;;;;2.37;0.40;;;;;;;19.15;37.75;100460.13;128350;1101;62815;-76
2021/05/24 09:23:35;;;;;;;0.60;0.20;;;;;;;19.29;37.40;100466.05;128450;1101;62377;-75
2021/05/24 09:26:11;;;;;;;2.80;0.50;;;;;;;19.40;37.71;100458.99;128375;1101;61992;-79
2021/05/24 09:28:51;;;;;;;3.83;0.37;;;;;;;19.48;36.26;100455.92;128367;1101;63027;-74
2021/05/24 09:31:24;;;;;;;1.37;0.30;;;;;;;19.58;35.01;100465.27;128381;1101;62216;-75
2021/05/24 09:33:56;;;;;;;0.75;0.20;;;;;;;19.55;35.54;100459.31;128396;1101;62078;-74
2021/05/24 09:36:24;;;;;;;0.80;0.20;;;;;;;19.61;35.46;100468.27;128407;1101;62534;-74
2021/05/24 09:38:58;;;;;;;0.40;0.20;;;;;;;19.60;34.94;100450.52;128418;1101;62111;-75
2021/05/24 09:41:26;;;;;;;1.10;0.23;;;;;;;19.69;36.55;100440.17;128412;1101;62710;-75
2021/05/24 09:43:54;;;;;;;1.63;0.30;;;;;;;19.89;37.33;100424.42;128389;1101;62244;-74
2021/05/24 09:46:30;;;;;;;0.60;0.30;;;;;;;20.05;36.13;100441.64;128353;1094;62376;-74
2021/05/24 09:49:04;;;;;;;0.73;0.20;;;;;;;20.20;35.85;100427.60;128364;1101;62105;-74
2021/05/24 09:51:37;;;;;;;0.90;0.20;;;;;;;20.22;35.39;100430.06;128410;1101;62497;-74
2021/05/24 09:54:11;;;;;;;1.93;0.67;;;;;;;20.11;35.23;100429.89;128367;1101;62241;-74
2021/05/24 09:56:41;;;;;;;0.80;0.30;;;;;;;20.00;35.05;100428.10;128423;1101;62617;-74
2021/05/24 09:59:13;;;;;;;0.77;0.30;;;;;;;20.08;35.52;100426.86;128420;1101;62512;-74
2021/05/24 10:01:48;;;;;;;1.90;0.30;;;;;;;20.16;34.93;100442.62;128402;1101;62046;-73
2021/05/24 10:04:24;;;;;;;2.40;0.40;;;;;;;20.17;34.44;100422.72;128392;1101;62099;-74
2021/05/24 10:06:52;;;;;;;1.10;0.43;;;;;;;20.03;34.75;100416.02;128433;1101;62154;-74
2021/05/24 10:09:20;;;;;;;1.03;0.40;;;;;;;20.01;35.56;100396.59;128438;1101;64022;-73
2021/05/24 10:11:50;;;;;;;1.87;0.40;;;;;;;20.11;35.24;100386.00;128430;1101;62380;-74
2021/05/24 10:14:23;;;;;;;1.63;0.17;;;;;;;20.15;35.68;100387.95;128468;1101;62051;-74
2021/05/24 10:16:57;;;;;;;0.87;0.23;;;;;;;20.23;35.23;100384.03;128412;1101;62467;-74
2021/05/24 10:19:25;;;;;;;0.87;0.30;;;;;;;20.55;35.58;100376.13;128433;1101;62301;-74
2021/05/24 10:21:52;;;;;;;0.73;0.30;;;;;;;20.94;34.79;100370.72;128402;1101;62046;-74
2021/05/24 10:24:24;;;;;;;2.57;0.63;;;;;;;21.16;34.14;100359.89;128422;1101;62197;-74
2021/05/24 10:26:56;;;;;;;1.60;0.50;;;;;;;21.22;34.48;100373.45;128458;1101;62954;-74
2021/05/24 10:29:23;;;;;;;1.57;0.40;;;;;;;21.11;33.36;100370.64;128405;1101;63432;-74
2021/05/24 10:31:51;;;;;;;0.50;0.20;;;;;;;21.01;33.32;100362.42;128372;1101;62297;-74
2021/05/24 10:34:20;;;;;;;0.80;0.30;;;;;;;20.93;34.94;100368.27;128379;1101;62213;-74
2021/05/24 10:37:08;;;;;;;0.50;0.20;;;;;;;21.03;34.70;100356.80;128367;1101;62115;-74
2021/05/24 10:39:49;;;;;;;3.53;0.30;;;;;;;21.20;35.42;100349.42;128390;1101;62169;-73
2021/05/24 10:42:16;;;;;;;2.23;0.50;;;;;;;21.17;34.75;100352.64;128440;1101;62109;-74
2021/05/24 10:44:46;;;;;;;0.63;0.23;;;;;;;21.01;35.17;100367.82;128444;1101;62895;-74
2021/05/24 10:47:22;;;;;;;1.00;0.40;;;;;;;20.98;35.44;100352.16;128405;1101;62139;-74
2021/05/24 10:50:02;;;;;;;1.60;0.37;;;;;;;21.15;34.62;100339.39;128444;1101;62485;-74
2021/05/24 10:52:41;;;;;;;0.67;0.30;;;;;;;21.47;35.93;100333.27;128449;1101;61920;-74
2021/05/24 10:55:26;;;;;;;3.23;0.57;;;;;;;21.63;34.04;100320.70;128382;1101;62386;-74
2021/05/24 10:58:18;;;;;;;0.83;0.30;;;;;;;21.64;33.05;100318.84;128440;1101;62098;-74
2021/05/24 11:01:04;;;;;;;2.60;0.43;;;;;;;21.51;31.94;100315.48;128366;1101;62171;-74
2021/05/24 11:03:33;;;;;;;1.93;0.57;;;;;;;21.19;32.47;100318.13;128464;1101;62157;-74
2021/05/24 11:06:13;;;;;;;3.00;0.60;;;;;;;21.02;33.02;100315.53;128420;1101;62074;-74
2021/05/24 11:08:48;;;;;;;0.50;0.20;;;;;;;20.89;34.16;100311.35;128431;1101;62051;-74
2021/05/24 11:11:22;;;;;;;1.43;0.60;;;;;;;20.68;33.41;100302.21;128372;1101;63354;-74
2021/05/24 11:13:56;;;;;;;1.43;0.30;;;;;;;20.66;33.08;100298.14;128394;1101;62981;-74
2021/05/24 11:16:25;;;;;;;2.70;0.50;;;;;;;20.90;33.49;100298.67;128441;1101;62492;-74
2021/05/24 11:19:08;;;;;;;2.10;0.93;;;;;;;21.12;33.98;100283.28;128424;1101;62346;-74
2021/05/24 11:21:40;;;;;;;0.50;0.40;;;;;;;21.23;32.24;100278.79;128455;1101;62142;-73
2021/05/24 11:24:50;;;;;;;1.33;0.37;;;;;;;21.53;33.64;100283.66;128416;1101;62529;-75
2021/05/24 11:27:16;;;;;;;0.60;0.30;;;;;;;21.72;32.17;100277.88;128403;1101;62434;-73
2021/05/24 11:29:48;;;;;;;1.37;0.37;;;;;;;21.68;31.74;100274.06;128438;1101;62960;-74